Time;durP1;ratioP1;P1;durP2;ratioP2;P2;SDS_P1;SDS_P2;PMS_P1;PMS_P2;Temp;Humidity;BMP_temperature;BMP_pressure;BME280_temperature;BME280_humidity;BME280_pressure;Samples;Min_cycle;Max_cycle;Signal;HPM_P1;HPM_P2
2023/05/27 00:00:45;;;;;;;11.73;3.45;;;;;;;12.14;76.06;102922.84;4986099;28;20137;-67
2023/05/27 00:03:12;;;;;;;10.70;2.88;;;;;;;12.10;76.95;102929.25;5000395;28;20585;-67
2023/05/27 00:05:38;;;;;;;10.35;3.22;;;;;;;12.17;75.27;102925.28;4981324;28;20101;-68
2023/05/27 00:08:05;;;;;;;11.82;3.10;;;;;;;12.11;76.45;102927.47;4990374;28;20054;-67
2023/05/27 00:10:31;;;;;;;14.05;2.88;;;;;;;12.06;75.71;102920.72;4989716;28;20132;-67
2023/05/27 00:12:57;;;;;;;9.90;2.80;;;;;;;12.01;78.01;102914.94;4982822;28;20082;-68
2023/05/27 00:15:24;;;;;;;8.23;2.67;;;;;;;11.94;77.08;102926.00;4995393;28;20056;-67
2023/05/27 00:17:50;;;;;;;13.73;2.88;;;;;;;11.88;79.42;102925.44;4987175;28;20058;-68
2023/05/27 00:20:17;;;;;;;14.05;4.20;;;;;;;11.87;79.32;102917.63;4995593;28;20133;-67
2023/05/27 00:22:44;;;;;;;12.85;3.28;;;;;;;11.90;77.92;102913.97;4973130;28;20042;-67
2023/05/27 00:25:10;;;;;;;13.20;3.17;;;;;;;11.91;78.47;102920.94;4993645;28;20281;-67
2023/05/27 00:27:37;;;;;;;13.68;3.28;;;;;;;11.91;77.63;102921.78;4982954;28;20058;-68
2023/05/27 00:30:04;;;;;;;9.82;3.15;;;;;;;11.83;79.70;102919.63;4985612;28;20149;-67
2023/05/27 00:32:30;;;;;;;6.13;2.10;;;;;;;11.83;78.19;102914.38;4969503;28;20530;-67
2023/05/27 00:34:57;;;;;;;13.30;2.75;;;;;;;11.86;78.22;102911.53;4988166;28;20054;-68
2023/05/27 00:37:23;;;;;;;14.52;3.05;;;;;;;11.78;79.72;102913.84;4991721;28;20581;-67
2023/05/27 00:39:50;;;;;;;12.80;2.75;;;;;;;11.80;80.04;102922.47;4984551;28;20133;-67
2023/05/27 00:42:16;;;;;;;8.32;2.72;;;;;;;11.78;80.26;102920.88;4985387;28;20106;-68
2023/05/27 00:44:43;;;;;;;14.73;3.15;;;;;;;11.71;80.09;102911.72;4973837;28;20167;-69
2023/05/27 00:47:09;;;;;;;16.65;4.03;;;;;;;11.65;82.18;102911.19;5000036;28;20077;-69
2023/05/27 00:49:36;;;;;;;16.77;3.17;;;;;;;11.51;83.86;102908.66;4993973;28;20784;-67
2023/05/27 00:52:03;;;;;;;12.57;3.15;;;;;;;11.42;84.68;102909.25;4987177;28;20114;-68
2023/05/27 00:54:31;;;;;;;15.73;3.53;;;;;;;11.43;83.49;102911.78;4997670;28;20058;-67
2023/05/27 00:56:57;;;;;;;11.20;2.65;;;;;;;11.44;83.32;102904.72;4988805;28;20085;-67
2023/05/27 00:59:24;;;;;;;11.57;2.92;;;;;;;11.47;82.57;102902.75;5003430;28;20480;-67
2023/05/27 01:01:51;;;;;;;15.02;3.15;;;;;;;11.45;84.66;102903.78;4987575;28;20133;-68
2023/05/27 01:04:18;;;;;;;11.07;3.42;;;;;;;11.39;84.33;102901.56;4994643;28;20054;-67
2023/05/27 01:07:08;;;;;;;16.38;3.97;;;;;;;11.36;86.55;102899.13;4990186;28;20076;-68
2023/05/27 01:09:44;;;;;;;11.25;3.22;;;;;;;11.41;85.26;102902.31;4990098;28;20058;-67
2023/05/27 01:12:31;;;;;;;13.88;3.47;;;;;;;11.36;85.78;102902.59;4996022;28;20069;-68
2023/05/27 01:14:58;;;;;;;18.42;3.85;;;;;;;11.38;84.83;102900.72;4989884;28;20081;-67
2023/05/27 01:17:26;;;;;;;12.38;2.95;;;;;;;11.34;85.34;102893.97;5002550;28;20042;-67
2023/05/27 01:19:53;;;;;;;;;;;;;;;11.31;86.65;102896.81;4988824;28;20065;-67
2023/05/27 01:22:22;;;;;;;13.90;2.85;;;;;;;11.24;87.17;102892.91;5002597;28;20378;-67
2023/05/27 01:24:49;;;;;;;14.23;3.30;;;;;;;11.26;86.19;102896.25;5000195;28;20225;-67
2023/05/27 01:27:15;;;;;;;18.70;3.58;;;;;;;11.20;87.03;102892.25;4996885;28;20050;-67
2023/05/27 01:29:42;;;;;;;15.00;3.30;;;;;;;11.14;87.63;102889.19;4971760;28;20137;-67
2023/05/27 01:32:16;;;;;;;13.20;3.15;;;;;;;11.12;87.58;102894.53;4981946;28;20042;-66
2023/05/27 01:35:18;;;;;;;15.15;3.42;;;;;;;11.10;88.06;102882.47;4980684;28;20374;-68
2023/05/27 01:37:46;;;;;;;13.55;2.90;;;;;;;11.02;87.91;102883.78;4976703;28;20712;-67
2023/05/27 01:40:14;;;;;;;12.32;3.60;;;;;;;11.04;89.20;102886.31;4990226;28;20100;-68
2023/05/27 01:42:43;;;;;;;14.25;3.50;;;;;;;10.98;91.10;102884.94;4999138;28;20161;-67
2023/05/27 01:45:11;;;;;;;15.65;4.13;;;;;;;10.94;90.98;102879.94;4994849;28;20055;-66
2023/05/27 01:47:38;;;;;;;18.90;4.22;;;;;;;10.94;91.58;102887.81;4968661;28;20057;-67
2023/05/27 01:50:05;;;;;;;15.15;3.58;;;;;;;10.95;89.50;102885.09;4993178;28;20049;-67
2023/05/27 01:52:31;;;;;;;14.15;3.30;;;;;;;10.95;90.79;102881.66;5004467;28;20050;-67
2023/05/27 01:54:58;;;;;;;15.05;3.28;;;;;;;10.88;92.30;102879.41;4990894;28;20105;-66
2023/05/27 01:57:25;;;;;;;16.83;3.75;;;;;;;10.83;93.79;102880.66;4995022;28;20587;-66
2023/05/27 01:59:52;;;;;;;11.40;3.42;;;;;;;10.79;93.62;102890.50;4984111;28;20145;-68
2023/05/27 02:02:18;;;;;;;17.02;3.58;;;;;;;10.73;93.54;102883.00;4988997;28;20089;-67
2023/05/27 02:04:45;;;;;;;14.45;3.55;;;;;;;10.72;93.60;102885.72;4995254;28;20050;-67
2023/05/27 02:07:11;;;;;;;10.75;3.22;;;;;;;10.73;93.95;102892.69;5000647;28;20053;-68
2023/05/27 02:09:38;;;;;;;9.63;3.00;;;;;;;10.71;93.24;102894.56;5000714;28;20132;-67
2023/05/27 02:12:06;;;;;;;13.32;3.38;;;;;;;10.69;94.45;102890.22;4986721;28;20050;-67
2023/05/27 02:14:34;;;;;;;13.18;3.35;;;;;;;10.68;94.48;102887.69;4994848;28;20057;-67
2023/05/27 02:17:03;;;;;;;10.43;3.67;;;;;;;10.69;93.00;102890.22;4988176;28;20054;-67
2023/05/27 02:19:30;;;;;;;9.50;3.42;;;;;;;10.68;94.76;102892.94;5002137;28;20169;-67
2023/05/27 02:21:57;;;;;;;16.13;3.85;;;;;;;10.73;93.06;102895.31;5003179;28;20049;-67
2023/05/27 02:24:23;;;;;;;13.82;3.90;;;;;;;10.70;92.38;102893.69;4998649;28;20112;-68
2023/05/27 02:26:49;;;;;;;9.68;3.25;;;;;;;10.66;93.45;102894.81;4993760;28;20082;-67
2023/05/27 02:29:16;;;;;;;24.98;4.07;;;;;;;10.65;95.11;102895.78;4987980;28;20183;-67
2023/05/27 02:31:42;;;;;;;14.35;3.83;;;;;;;10.62;94.76;102895.97;4993181;28;20499;-69
2023/05/27 02:34:09;;;;;;;12.32;4.05;;;;;;;10.63;94.95;102908.16;4991553;28;20137;-69
2023/05/27 02:36:36;;;;;;;10.35;3.60;;;;;;;10.62;95.06;102901.22;4982280;28;20056;-70
2023/05/27 02:39:02;;;;;;;15.60;3.50;;;;;;;10.54;95.38;102904.31;4989346;28;20172;-69
2023/05/27 02:41:29;;;;;;;12.95;3.40;;;;;;;10.52;96.30;102893.06;5000424;28;20141;-69
2023/05/27 02:43:55;;;;;;;11.40;3.40;;;;;;;10.51;94.30;102907.16;4987697;28;20176;-69
2023/05/27 02:46:22;;;;;;;15.50;3.85;;;;;;;10.51;96.35;102909.78;4990232;28;20153;-69
2023/05/27 02:48:48;;;;;;;14.60;3.42;;;;;;;10.44;95.01;102897.94;4999197;28;20487;-69
2023/05/27 02:51:15;;;;;;;14.75;3.67;;;;;;;10.41;97.30;102901.63;4991874;28;20130;-69
2023/05/27 02:53:41;;;;;;;12.48;3.85;;;;;;;10.32;98.77;102893.47;4996973;28;20053;-69
2023/05/27 02:56:08;;;;;;;14.90;3.72;;;;;;;10.30;98.79;102898.81;4988269;28;20156;-70
2023/05/27 02:58:34;;;;;;;14.45;4.10;;;;;;;10.32;98.96;102901.34;4966250;28;20054;-68
2023/05/27 03:01:01;;;;;;;15.02;3.50;;;;;;;10.27;98.31;102899.81;4995140;28;20050;-69
2023/05/27 03:03:27;;;;;;;26.23;3.95;;;;;;;10.26;99.13;102903.34;4995119;28;20137;-70
2023/05/27 03:05:54;;;;;;;14.07;3.80;;;;;;;10.21;100.00;102902.81;5000351;28;20116;-69
2023/05/27 03:08:21;;;;;;;14.23;3.33;;;;;;;10.24;98.62;102894.75;4997201;28;20057;-68
2023/05/27 03:10:47;;;;;;;14.82;3.90;;;;;;;10.23;99.85;102898.31;4982277;28;20336;-69
2023/05/27 03:13:14;;;;;;;13.57;3.67;;;;;;;10.16;100.00;102898.78;4988839;28;20049;-71
2023/05/27 03:15:40;;;;;;;13.35;3.33;;;;;;;10.18;100.00;102891.66;4993705;28;20053;-68
2023/05/27 03:18:07;;;;;;;13.85;4.32;;;;;;;10.12;100.00;102892.88;4997590;28;20054;-68
2023/05/27 03:20:33;;;;;;;14.20;3.90;;;;;;;10.15;99.65;102886.59;4980271;28;20081;-69
2023/05/27 03:23:00;;;;;;;16.67;3.55;;;;;;;10.14;100.00;102884.91;4993021;28;20057;-68
2023/05/27 03:25:28;;;;;;;17.80;4.32;;;;;;;10.08;100.00;102886.97;4978558;28;20077;-69
2023/05/27 03:27:55;;;;;;;11.30;3.25;;;;;;;10.06;100.00;102882.75;4990321;28;20057;-68
2023/05/27 03:30:21;;;;;;;17.95;4.13;;;;;;;10.03;100.00;102885.53;4990129;28;20135;-68
2023/05/27 03:32:48;;;;;;;9.27;2.97;;;;;;;10.01;100.00;102876.94;4985001;28;20050;-69
2023/05/27 03:35:15;;;;;;;18.20;3.63;;;;;;;10.00;100.00;102896.22;5000169;28;20072;-68
2023/05/27 03:37:41;;;;;;;14.98;3.47;;;;;;;9.95;100.00;102885.16;4987499;28;20085;-68
2023/05/27 03:40:08;;;;;;;15.90;4.32;;;;;;;9.92;100.00;102880.09;4980542;28;20072;-69
2023/05/27 03:42:35;;;;;;;16.77;3.83;;;;;;;9.89;100.00;102881.97;4979166;28;20145;-68
2023/05/27 03:45:02;;;;;;;17.98;4.53;;;;;;;9.87;100.00;102878.59;5003498;28;20447;-68
2023/05/27 03:47:28;;;;;;;13.88;3.47;;;;;;;9.87;100.00;102881.22;4997545;28;20053;-68
2023/05/27 03:49:55;;;;;;;17.75;4.18;;;;;;;9.84;100.00;102870.94;4979691;28;20050;-68
2023/05/27 03:52:21;;;;;;;11.07;3.50;;;;;;;9.88;100.00;102879.47;4985153;28;20050;-68
2023/05/27 03:54:48;;;;;;;13.68;3.55;;;;;;;9.86;100.00;102870.84;4985186;28;20469;-69
2023/05/27 03:57:15;;;;;;;18.23;4.47;;;;;;;9.89;100.00;102881.13;4989802;28;20705;-68
2023/05/27 03:59:42;;;;;;;9.55;3.53;;;;;;;9.89;100.00;102879.34;4983534;28;20050;-69
2023/05/27 04:02:08;;;;;;;19.15;4.43;;;;;;;9.89;100.00;102875.88;4995297;28;20050;-68
2023/05/27 04:04:35;;;;;;;12.10;3.60;;;;;;;9.88;100.00;102872.44;4985625;28;20506;-68
2023/05/27 04:07:02;;;;;;;13.35;4.13;;;;;;;9.90;100.00;102870.56;4985126;28;20425;-68
2023/05/27 04:09:29;;;;;;;11.00;3.08;;;;;;;9.96;100.00;102863.25;4998612;28;20060;-68
2023/05/27 04:11:56;;;;;;;18.45;5.22;;;;;;;9.96;100.00;102861.50;4994673;28;20051;-68
2023/05/27 04:14:22;;;;;;;12.30;4.25;;;;;;;9.87;100.00;102849.75;4994000;28;20133;-68
2023/05/27 04:16:49;;;;;;;13.93;4.15;;;;;;;9.90;100.00;102864.47;4989698;28;20283;-68
2023/05/27 04:19:16;;;;;;;17.92;5.03;;;;;;;9.94;100.00;102860.75;4994245;28;20054;-69
2023/05/27 04:21:42;;;;;;;17.85;3.80;;;;;;;9.96;100.00;102863.25;4989044;28;20054;-68
2023/05/27 04:24:09;;;;;;;14.63;3.65;;;;;;;9.94;100.00;102867.72;4987493;28;20057;-69
2023/05/27 04:26:35;;;;;;;18.10;4.07;;;;;;;9.97;100.00;102857.91;4988209;28;20050;-69
2023/05/27 04:29:03;;;;;;;11.10;3.53;;;;;;;9.99;100.00;102855.22;4986823;28;20046;-69
2023/05/27 04:31:29;;;;;;;12.93;3.67;;;;;;;9.98;100.00;102854.38;4978481;28;20057;-68
2023/05/27 04:33:56;;;;;;;13.68;4.20;;;;;;;9.98;100.00;102846.50;4994855;28;20124;-68
2023/05/27 04:36:25;;;;;;;11.52;3.90;;;;;;;10.02;100.00;102844.53;4996302;28;20046;-68
2023/05/27 04:38:52;;;;;;;12.65;3.80;;;;;;;9.98;100.00;102850.91;4992596;28;20137;-68
2023/05/27 04:41:28;;;;;;;13.07;3.75;;;;;;;10.00;100.00;102844.63;4991002;28;20462;-68
2023/05/27 04:43:56;;;;;;;14.50;4.22;;;;;;;9.98;100.00;102838.63;4995831;28;20054;-68
2023/05/27 04:46:24;;;;;;;15.43;4.45;;;;;;;10.05;100.00;102850.41;4981143;28;20111;-68
2023/05/27 04:48:52;;;;;;;11.82;3.53;;;;;;;10.09;100.00;102851.09;4992104;28;20136;-68
2023/05/27 04:51:19;;;;;;;12.13;3.55;;;;;;;10.09;100.00;102843.22;4990724;28;20061;-68
2023/05/27 04:53:47;;;;;;;14.07;3.78;;;;;;;10.09;100.00;102849.31;4991089;28;20077;-68
2023/05/27 04:56:15;;;;;;;16.13;4.13;;;;;;;10.12;100.00;102850.06;4996499;28;20069;-68
2023/05/27 04:58:43;;;;;;;15.87;5.30;;;;;;;10.14;100.00;102845.56;4993039;28;20521;-68
2023/05/27 05:01:17;;;;;;;15.88;3.95;;;;;;;10.08;100.00;102847.63;4976332;28;20284;-68
2023/05/27 05:03:52;;;;;;;16.83;4.22;;;;;;;10.16;100.00;102849.78;4989508;28;20838;-69
2023/05/27 05:06:20;;;;;;;16.52;5.00;;;;;;;10.17;100.00;102845.38;4995297;28;20562;-69
2023/05/27 05:08:48;;;;;;;17.20;4.22;;;;;;;10.16;100.00;102839.28;4982102;28;20049;-68
2023/05/27 05:11:14;;;;;;;17.15;4.43;;;;;;;10.21;100.00;102839.88;4988997;28;20058;-68
2023/05/27 05:13:41;;;;;;;9.88;3.42;;;;;;;10.26;100.00;102844.81;4980480;28;20349;-69
2023/05/27 05:16:07;;;;;;;12.43;4.00;;;;;;;10.28;100.00;102846.41;4985252;28;20061;-68
2023/05/27 05:18:34;;;;;;;15.48;4.18;;;;;;;10.35;100.00;102843.41;4992834;28;20051;-69
2023/05/27 05:21:00;;;;;;;15.90;3.60;;;;;;;10.42;100.00;102845.56;4985770;28;20061;-68
2023/05/27 05:23:27;;;;;;;19.63;4.20;;;;;;;10.51;100.00;102848.56;4995349;28;20046;-68
2023/05/27 05:25:58;;;;;;;11.95;3.42;;;;;;;10.49;100.00;102839.00;4987243;28;20050;-69
2023/05/27 05:28:24;;;;;;;13.98;4.50;;;;;;;10.50;100.00;102834.59;4992003;28;20078;-68
2023/05/27 05:30:51;;;;;;;17.83;5.43;;;;;;;10.53;100.00;102838.81;4994492;28;20410;-69
2023/05/27 05:33:18;;;;;;;20.50;4.60;;;;;;;10.56;100.00;102842.06;4992695;28;20042;-68
2023/05/27 05:35:47;;;;;;;16.83;3.80;;;;;;;10.62;100.00;102835.59;5002280;28;20494;-68
2023/05/27 05:38:13;;;;;;;16.85;4.43;;;;;;;10.64;100.00;102831.97;4994158;28;20153;-69
2023/05/27 05:40:40;;;;;;;16.38;4.00;;;;;;;10.67;100.00;102831.75;4984000;28;20072;-69
2023/05/27 05:43:06;;;;;;;17.38;4.60;;;;;;;10.71;100.00;102821.91;4991036;28;20144;-68
2023/05/27 05:45:33;;;;;;;12.70;3.75;;;;;;;10.77;100.00;102825.91;4997686;28;20054;-68
2023/05/27 05:47:59;;;;;;;20.38;4.20;;;;;;;10.77;100.00;102818.88;4990845;28;20050;-69
2023/05/27 05:50:26;;;;;;;14.27;4.43;;;;;;;10.82;100.00;102829.94;4987576;28;20077;-68
2023/05/27 05:52:52;;;;;;;17.85;4.63;;;;;;;10.84;100.00;102830.69;4996021;28;20082;-69
2023/05/27 05:55:19;;;;;;;11.75;3.35;;;;;;;10.91;100.00;102831.09;4981261;28;20061;-68
2023/05/27 05:57:45;;;;;;;14.85;4.43;;;;;;;10.97;100.00;102830.72;5003928;28;20140;-68
2023/05/27 06:00:13;;;;;;;21.10;4.65;;;;;;;10.99;100.00;102833.25;4998031;28;20127;-68
2023/05/27 06:02:39;;;;;;;18.65;4.45;;;;;;;10.98;100.00;102832.41;4995757;28;20524;-70
2023/05/27 06:05:06;;;;;;;15.82;3.83;;;;;;;11.04;100.00;102833.78;4988639;28;20054;-69
2023/05/27 06:07:33;;;;;;;20.63;5.13;;;;;;;11.04;100.00;102831.16;4996593;28;20443;-68
2023/05/27 06:09:59;;;;;;;15.95;4.53;;;;;;;11.04;100.00;102826.75;4998505;28;20050;-69
2023/05/27 06:12:26;;;;;;;15.90;4.57;;;;;;;11.07;100.00;102825.69;4991911;28;20054;-68
2023/05/27 06:14:53;;;;;;;18.48;4.53;;;;;;;11.08;100.00;102815.09;4988585;28;20065;-69
2023/05/27 06:17:19;;;;;;;12.30;3.85;;;;;;;11.21;100.00;102814.28;4987772;28;20484;-69
2023/05/27 06:19:46;;;;;;;13.00;4.47;;;;;;;11.23;100.00;102821.13;5004066;28;20112;-68
2023/05/27 06:22:12;;;;;;;19.75;4.82;;;;;;;11.27;100.00;102820.00;4988822;28;20043;-71
2023/05/27 06:24:39;;;;;;;12.23;3.83;;;;;;;11.35;100.00;102818.63;4987458;28;20054;-69
2023/05/27 06:27:05;;;;;;;21.02;5.65;;;;;;;11.41;100.00;102815.59;4996831;28;20085;-70
2023/05/27 06:29:32;;;;;;;18.20;4.93;;;;;;;11.47;100.00;102818.66;4994859;28;20470;-69
2023/05/27 06:31:58;;;;;;;15.38;5.13;;;;;;;11.45;100.00;102810.03;4989900;28;20136;-68
2023/05/27 06:34:25;;;;;;;12.75;3.67;;;;;;;11.55;100.00;102806.78;4987637;28;20065;-68
2023/05/27 06:36:52;;;;;;;14.40;3.85;;;;;;;11.64;100.00;102808.75;4985857;28;20054;-68
2023/05/27 06:39:18;;;;;;;13.13;4.38;;;;;;;11.69;100.00;102811.94;4979261;28;20108;-68
2023/05/27 06:41:45;;;;;;;15.07;3.55;;;;;;;11.79;100.00;102805.09;4990783;28;20471;-69
2023/05/27 06:44:11;;;;;;;15.05;4.43;;;;;;;11.82;100.00;102807.53;5000963;28;20475;-69
2023/05/27 06:46:38;;;;;;;15.85;4.00;;;;;;;11.86;100.00;102808.97;4995861;28;20466;-68
2023/05/27 06:49:04;;;;;;;14.95;4.50;;;;;;;11.85;100.00;102812.53;4997489;28;20100;-70
2023/05/27 06:51:31;;;;;;;17.10;4.25;;;;;;;11.88;100.00;102809.72;4987366;28;20105;-69
2023/05/27 06:53:58;;;;;;;14.73;4.18;;;;;;;11.93;100.00;102806.78;4987091;28;20043;-69
2023/05/27 06:56:25;;;;;;;12.18;3.67;;;;;;;11.94;100.00;102799.75;4996473;28;20118;-70
2023/05/27 06:58:55;;;;;;;18.23;4.78;;;;;;;11.95;100.00;102802.25;4991107;28;20062;-70
2023/05/27 07:01:21;;;;;;;14.48;4.00;;;;;;;12.04;100.00;102799.00;4982145;28;20107;-69
2023/05/27 07:03:48;;;;;;;17.08;4.85;;;;;;;12.12;100.00;102795.84;4980051;28;20122;-67
2023/05/27 07:06:16;;;;;;;11.32;4.28;;;;;;;12.19;100.00;102790.97;4991406;28;20058;-68
2023/05/27 07:08:42;;;;;;;21.08;4.90;;;;;;;12.24;100.00;102787.06;4989921;28;20101;-69
2023/05/27 07:11:09;;;;;;;14.95;4.53;;;;;;;12.35;100.00;102794.22;5004720;28;20052;-69
2023/05/27 07:13:35;;;;;;;16.25;3.90;;;;;;;12.41;100.00;102777.97;4984235;28;20077;-69
2023/05/27 07:16:02;;;;;;;11.00;4.20;;;;;;;12.46;100.00;102778.47;4974230;28;20135;-69
2023/05/27 07:18:28;;;;;;;15.70;5.03;;;;;;;12.53;100.00;102783.31;4982314;28;20085;-69
2023/05/27 07:20:55;;;;;;;13.93;4.07;;;;;;;12.59;100.00;102773.16;4996222;28;20169;-68
2023/05/27 07:23:21;;;;;;;12.43;3.95;;;;;;;12.68;100.00;102784.78;4990266;28;20153;-69
2023/05/27 07:25:48;;;;;;;13.60;4.55;;;;;;;12.76;100.00;102784.22;4994183;28;20046;-68
2023/05/27 07:28:15;;;;;;;16.13;3.90;;;;;;;12.86;100.00;102777.34;4990803;28;20057;-69
2023/05/27 07:30:42;;;;;;;14.23;4.70;;;;;;;12.87;100.00;102765.84;4984507;28;20054;-70
2023/05/27 07:33:09;;;;;;;10.57;3.97;;;;;;;12.99;97.26;102762.28;4964839;28;20050;-69
2023/05/27 07:35:36;;;;;;;14.63;4.32;;;;;;;13.05;100.00;102759.22;4990565;28;20498;-69
2023/05/27 07:38:03;;;;;;;18.02;4.10;;;;;;;13.10;96.72;102758.88;4982884;28;20047;-69
2023/05/27 07:40:29;;;;;;;15.40;5.15;;;;;;;13.20;97.90;102759.03;4985706;28;20089;-70
2023/05/27 07:42:56;;;;;;;14.13;5.03;;;;;;;13.28;100.00;102755.81;4964129;28;20042;-69
2023/05/27 07:45:22;;;;;;;22.38;6.50;;;;;;;13.38;97.83;102746.25;4982754;28;20049;-69
2023/05/27 07:47:49;;;;;;;15.65;4.88;;;;;;;13.42;96.78;102742.44;4984006;28;20100;-69
2023/05/27 07:50:16;;;;;;;17.63;4.50;;;;;;;13.50;96.69;102755.03;5000143;28;20088;-71
2023/05/27 07:52:42;;;;;;;18.25;4.75;;;;;;;13.55;95.75;102752.88;4993370;28;20052;-69
2023/05/27 07:55:09;;;;;;;11.70;4.00;;;;;;;13.64;91.71;102746.88;4993961;28;20057;-69
2023/05/27 07:57:35;;;;;;;18.83;4.25;;;;;;;13.75;91.06;102749.50;4985277;28;20169;-70
2023/05/27 08:00:05;;;;;;;12.40;4.18;;;;;;;13.83;91.29;102747.09;4989877;28;20561;-68
2023/05/27 08:02:32;;;;;;;15.18;5.25;;;;;;;13.89;93.36;102745.78;4994705;28;20053;-68
2023/05/27 08:04:59;;;;;;;16.13;4.93;;;;;;;13.98;92.61;102742.44;4993420;28;20045;-70
2023/05/27 08:07:25;;;;;;;21.85;5.50;;;;;;;14.05;94.00;102737.50;4993445;28;20046;-69
2023/05/27 08:09:53;;;;;;;13.95;3.75;;;;;;;14.15;91.59;102742.88;4987580;28;20137;-69
2023/05/27 08:12:22;;;;;;;11.57;3.92;;;;;;;14.28;90.09;102740.09;4993201;28;20172;-70
2023/05/27 08:14:49;;;;;;;20.35;4.82;;;;;;;14.37;89.53;102727.00;4997259;28;20490;-70
2023/05/27 08:17:16;;;;;;;19.83;5.07;;;;;;;14.42;90.21;102724.81;4984069;28;20058;-70
2023/05/27 08:19:44;;;;;;;17.35;4.57;;;;;;;14.50;89.80;102718.06;4996899;28;20049;-69
2023/05/27 08:22:10;;;;;;;16.25;5.05;;;;;;;14.53;89.31;102718.66;4984207;28;20046;-69
2023/05/27 08:24:38;;;;;;;14.73;4.03;;;;;;;14.64;88.70;102707.22;4997670;28;20136;-69
2023/05/27 08:27:05;;;;;;;14.67;4.63;;;;;;;14.82;89.14;102708.34;4994272;28;20050;-70
2023/05/27 08:29:32;;;;;;;14.52;4.50;;;;;;;15.20;84.69;102698.97;4979290;28;20130;-70
2023/05/27 08:31:59;;;;;;;16.05;5.15;;;;;;;15.55;85.08;102696.91;4993600;28;20054;-68
2023/05/27 08:34:27;;;;;;;14.80;5.18;;;;;;;15.93;85.84;102693.56;4981220;28;20050;-67
2023/05/27 08:36:53;;;;;;;16.08;5.43;;;;;;;16.35;79.89;102696.00;4976215;28;20509;-67
2023/05/27 08:39:20;;;;;;;18.95;4.45;;;;;;;16.72;77.72;102682.06;4989237;28;20483;-69
2023/05/27 08:41:47;;;;;;;15.05;4.80;;;;;;;17.17;72.97;102683.22;4994904;28;20133;-68
2023/05/27 08:44:13;;;;;;;15.07;4.80;;;;;;;17.58;74.56;102681.09;4977780;28;20152;-69
2023/05/27 08:46:44;;;;;;;13.50;5.38;;;;;;;17.93;69.04;102688.31;4994151;28;20510;-69
2023/05/27 08:49:11;;;;;;;14.98;4.75;;;;;;;18.26;69.04;102671.91;4994676;28;20062;-69
2023/05/27 08:51:41;;;;;;;12.05;4.82;;;;;;;18.61;64.08;102672.84;4983720;28;20073;-68
2023/05/27 08:54:09;;;;;;;18.42;5.00;;;;;;;18.96;64.34;102671.97;4991944;28;20046;-69
2023/05/27 08:56:37;;;;;;;18.05;5.72;;;;;;;19.20;63.28;102662.47;4979344;28;20062;-70
2023/05/27 08:59:03;;;;;;;14.25;5.53;;;;;;;19.35;62.85;102663.53;4984868;28;20050;-69
2023/05/27 09:01:31;;;;;;;14.93;5.03;;;;;;;19.66;61.33;102663.81;4993639;28;20502;-69
2023/05/27 09:03:58;;;;;;;17.88;5.05;;;;;;;19.78;59.40;102651.06;4986469;28;20085;-69
2023/05/27 09:06:25;;;;;;;13.80;4.75;;;;;;;20.07;61.24;102655.94;4990704;28;20677;-69
2023/05/27 09:08:52;;;;;;;20.00;5.90;;;;;;;20.32;59.89;102640.78;4987697;28;20054;-70
2023/05/27 09:11:20;;;;;;;16.13;4.90;;;;;;;20.56;59.63;102644.44;4999410;28;20054;-69
2023/05/27 09:13:47;;;;;;;17.15;5.25;;;;;;;20.71;57.62;102640.09;4993207;28;20042;-69
2023/05/27 09:16:14;;;;;;;19.95;5.25;;;;;;;20.89;57.40;102631.88;4990030;28;20046;-69
2023/05/27 09:18:41;;;;;;;16.20;5.18;;;;;;;21.09;56.47;102635.03;4992133;28;20158;-70
2023/05/27 09:21:07;;;;;;;18.35;5.45;;;;;;;21.22;56.27;102637.13;4981832;28;20054;-70
2023/05/27 09:23:40;;;;;;;17.02;5.50;;;;;;;21.39;54.67;102642.41;4993582;28;20050;-69
2023/05/27 09:26:11;;;;;;;15.30;4.95;;;;;;;21.51;54.32;102635.69;4973695;28;20561;-69
2023/05/27 09:28:39;;;;;;;16.65;5.63;;;;;;;21.59;55.44;102632.97;5004947;28;20486;-68
2023/05/27 09:31:06;;;;;;;20.40;6.25;;;;;;;21.70;54.63;102639.78;4980120;28;20696;-70
2023/05/27 09:33:35;;;;;;;11.93;4.70;;;;;;;21.82;56.10;102633.00;4983780;28;20061;-70
2023/05/27 09:36:03;;;;;;;17.73;5.30;;;;;;;21.99;54.31;102633.72;4996456;28;20046;-70
2023/05/27 09:38:31;;;;;;;19.13;5.78;;;;;;;22.16;53.07;102629.09;4997315;28;20500;-70
2023/05/27 09:40:58;;;;;;;17.13;5.20;;;;;;;22.23;52.13;102630.03;4997285;28;20104;-69
2023/05/27 09:43:26;;;;;;;19.50;5.82;;;;;;;22.37;50.82;102627.63;4992410;28;20148;-70
2023/05/27 09:46:01;;;;;;;16.20;5.38;;;;;;;22.50;51.57;102622.44;4992097;28;20257;-70
2023/05/27 09:48:31;;;;;;;18.65;5.68;;;;;;;22.67;52.16;102620.44;4995138;28;20136;-69
2023/05/27 09:50:59;;;;;;;20.05;5.80;;;;;;;22.68;50.96;102620.28;4997958;28;20042;-70
2023/05/27 09:53:27;;;;;;;15.07;5.10;;;;;;;22.87;51.45;102616.25;5000273;28;20065;-70
2023/05/27 09:55:54;;;;;;;17.95;5.85;;;;;;;23.04;51.56;102611.53;4998756;28;20101;-69
2023/05/27 09:58:23;;;;;;;16.13;5.43;;;;;;;23.22;51.19;102613.00;4999906;28;20617;-69
2023/05/27 10:00:50;;;;;;;16.60;5.53;;;;;;;23.32;49.54;102613.53;4986759;28;20050;-68
2023/05/27 10:03:21;;;;;;;19.95;5.22;;;;;;;23.38;47.90;102607.41;4973334;28;20112;-69
2023/05/27 10:05:50;;;;;;;16.10;5.55;;;;;;;23.32;47.50;102610.03;4987548;28;20084;-69
2023/05/27 10:08:18;;;;;;;16.20;6.10;;;;;;;23.48;49.31;102605.28;5002828;28;20100;-69
2023/05/27 10:10:53;;;;;;;18.85;5.95;;;;;;;23.59;48.65;102598.56;4994972;28;20052;-69
2023/05/27 10:13:39;;;;;;;17.05;5.60;;;;;;;23.71;47.90;102585.50;4983337;28;20100;-69
2023/05/27 10:16:06;;;;;;;18.55;5.72;;;;;;;23.71;48.43;102582.84;4998952;28;20060;-68
2023/05/27 10:18:33;;;;;;;13.93;4.72;;;;;;;23.96;47.92;102582.47;4982364;28;20064;-69
2023/05/27 10:21:04;;;;;;;18.33;5.63;;;;;;;24.02;45.76;102579.84;4988001;28;20058;-68
2023/05/27 10:23:31;;;;;;;16.88;5.43;;;;;;;24.17;46.87;102585.13;4981183;28;20140;-69
2023/05/27 10:26:05;;;;;;;18.07;5.67;;;;;;;24.16;46.86;102579.97;4994546;28;20500;-68
2023/05/27 10:28:37;;;;;;;16.20;5.53;;;;;;;24.26;47.02;102573.22;4985622;28;20057;-70
2023/05/27 10:31:05;;;;;;;15.65;4.88;;;;;;;24.44;46.37;102572.75;4995215;28;20050;-69
2023/05/27 10:33:37;;;;;;;16.55;4.57;;;;;;;24.53;47.19;102569.94;4991140;28;20046;-71
2023/05/27 10:36:21;;;;;;;15.93;5.72;;;;;;;24.57;44.46;102565.81;4993883;28;20046;-68
2023/05/27 10:38:56;;;;;;;16.05;5.90;;;;;;;24.70;45.51;102573.09;4981751;28;20450;-69
2023/05/27 10:41:23;;;;;;;13.40;5.03;;;;;;;24.74;45.29;102569.03;4987298;28;20185;-70
2023/05/27 10:43:57;;;;;;;17.50;5.15;;;;;;;24.95;46.25;102560.03;4985927;28;20491;-69
2023/05/27 10:46:24;;;;;;;18.65;5.30;;;;;;;25.01;44.48;102560.06;4983900;28;20624;-70
2023/05/27 10:48:51;;;;;;;14.18;5.00;;;;;;;25.23;44.13;102563.47;4993961;28;20111;-71
2023/05/27 10:51:18;;;;;;;14.15;4.78;;;;;;;25.42;44.38;102551.13;4986420;28;20141;-70
2023/05/27 10:53:46;;;;;;;20.02;5.30;;;;;;;25.55;43.74;102553.00;4995874;28;20057;-71
2023/05/27 10:56:25;;;;;;;18.45;6.00;;;;;;;25.57;44.22;102547.41;4988836;28;20050;-72
2023/05/27 10:58:55;;;;;;;16.73;5.70;;;;;;;25.71;44.54;102542.88;4994463;28;20058;-72
2023/05/27 11:01:26;;;;;;;16.92;5.60;;;;;;;25.77;43.60;102536.66;4997798;28;20081;-71
2023/05/27 11:03:54;;;;;;;17.92;5.45;;;;;;;25.80;44.93;102533.59;4993047;28;20050;-72
2023/05/27 11:06:20;;;;;;;17.60;5.90;;;;;;;25.77;44.13;102523.22;4994203;28;20146;-71
2023/05/27 11:08:47;;;;;;;12.10;5.28;;;;;;;25.88;43.73;102519.94;4989720;28;20077;-72
2023/05/27 11:11:14;;;;;;;13.85;4.75;;;;;;;26.02;44.09;102524.28;4995390;28;20062;-72
2023/05/27 11:13:45;;;;;;;15.48;5.10;;;;;;;26.09;43.59;102516.22;4991648;28;20519;-73
2023/05/27 11:16:15;;;;;;;17.92;5.90;;;;;;;26.15;42.89;102520.75;4985962;28;20058;-72
2023/05/27 11:18:46;;;;;;;;;;;;;;;26.24;42.51;102518.66;4969629;28;20101;-72